createdAt,value
2023-04-25T00:00:15.351Z,98051.44
2023-04-25T00:02:42.714Z,98053.88
2023-04-25T00:05:10.261Z,98061.22
2023-04-25T00:07:36.892Z,98064.47
2023-04-25T00:10:04.617Z,98053.63
2023-04-25T00:12:31.197Z,98047.41
2023-04-25T00:15:00.984Z,98044.69
2023-04-25T00:17:27.910Z,98053.28
2023-04-25T00:19:54.553Z,98043.69
2023-04-25T00:22:22.117Z,98055.16
2023-04-25T00:24:48.826Z,98054.91
2023-04-25T00:27:15.408Z,98052.78
2023-04-25T00:29:41.922Z,98045.97
2023-04-25T00:32:08.550Z,98048.06
2023-04-25T00:34:36.150Z,98046.13
2023-04-25T00:37:03.264Z,98047.66
2023-04-25T00:39:29.878Z,98045.97
2023-04-25T00:41:56.592Z,98053.44
2023-04-25T00:44:23.401Z,98043.19
2023-04-25T00:46:52.507Z,98045.31
2023-04-25T00:49:19.023Z,98039.31
2023-04-25T00:51:45.805Z,98047.25
2023-04-25T00:54:13.652Z,98034.75
2023-04-25T00:56:40.718Z,98043.22
2023-04-25T00:59:07.554Z,98040.31
2023-04-25T01:01:34.459Z,98041.34
2023-04-25T01:04:02.088Z,98035.66
2023-04-25T01:06:28.673Z,98042.19
2023-04-25T01:08:55.455Z,98028.41
2023-04-25T01:11:21.988Z,98023.75
2023-04-25T01:13:48.914Z,98032.53
2023-04-25T01:16:16.143Z,98030.19
2023-04-25T01:18:43.597Z,98019.88
2023-04-25T01:21:11.826Z,98014.50
2023-04-25T01:23:41.001Z,98014.19
2023-04-25T01:26:09.742Z,98007.13
2023-04-25T01:28:36.754Z,98011.28
2023-04-25T01:31:03.863Z,98004.84
2023-04-25T01:33:30.721Z,98006.47
2023-04-25T01:35:57.181Z,98011.59
2023-04-25T01:38:23.806Z,98006.56
2023-04-25T01:40:52.198Z,97999.97
2023-04-25T01:43:19.002Z,98001.69
2023-04-25T01:45:45.742Z,98000.38
2023-04-25T01:48:14.124Z,97988.94
2023-04-25T01:50:41.592Z,97992.25
2023-04-25T01:53:10.429Z,97996.31
2023-04-25T01:55:36.931Z,97993.41
2023-04-25T01:58:04.746Z,97991.94
2023-04-25T02:00:31.303Z,97996.16
2023-04-25T02:03:00.708Z,97992.03
2023-04-25T02:05:27.273Z,97996.59
2023-04-25T02:07:53.789Z,97990.66
2023-04-25T02:10:20.498Z,97991.91
2023-04-25T02:12:46.926Z,97987.38
2023-04-25T02:15:13.365Z,97983.38
2023-04-25T02:17:40.221Z,97983.00
2023-04-25T02:20:07.288Z,97982.50
2023-04-25T02:22:35.030Z,97974.16
2023-04-25T02:25:01.526Z,97979.75
2023-04-25T02:27:28.045Z,97980.56
2023-04-25T02:29:54.530Z,97967.66
2023-04-25T02:32:21.486Z,97975.88
2023-04-25T02:34:49.010Z,97980.25
2023-04-25T02:37:15.639Z,97973.19
2023-04-25T02:39:42.060Z,97974.59
2023-04-25T02:42:08.578Z,97977.97
2023-04-25T02:44:35.081Z,97971.81
2023-04-25T02:47:01.617Z,97972.53
2023-04-25T02:49:28.210Z,97970.09
2023-04-25T02:51:54.683Z,97970.81
2023-04-25T02:54:21.163Z,97965.28
2023-04-25T02:56:47.653Z,97957.50
2023-04-25T02:59:14.143Z,97958.22
2023-04-25T03:01:40.580Z,97953.28
2023-04-25T03:04:07.897Z,97955.53
2023-04-25T03:06:34.347Z,97950.09
2023-04-25T03:09:00.844Z,97952.53
2023-04-25T03:11:28.289Z,97941.97
2023-04-25T03:13:54.784Z,97940.31
2023-04-25T03:16:21.401Z,97938.47
2023-04-25T03:18:47.950Z,97936.41
2023-04-25T03:21:14.435Z,97933.25
2023-04-25T03:23:41.032Z,97937.06
2023-04-25T03:26:07.548Z,97931.94
2023-04-25T03:28:33.997Z,97921.31
2023-04-25T03:31:00.529Z,97920.53
2023-04-25T03:33:27.052Z,97923.56
2023-04-25T03:35:53.989Z,97927.72
2023-04-25T03:38:20.542Z,97924.00
2023-04-25T03:40:47.098Z,97924.09
2023-04-25T03:43:13.558Z,97904.50
2023-04-25T03:45:40.478Z,97921.88
2023-04-25T03:48:07.039Z,97920.84
2023-04-25T03:50:33.661Z,97924.97
2023-04-25T03:53:00.217Z,97925.63
2023-04-25T03:55:26.693Z,97927.03
2023-04-25T03:57:53.254Z,97932.34
2023-04-25T04:00:19.730Z,97920.09
2023-04-25T04:02:46.630Z,97921.94
2023-04-25T04:05:13.883Z,97924.56
2023-04-25T04:07:41.215Z,97915.06
2023-04-25T04:10:08.631Z,97929.09
2023-04-25T04:12:35.188Z,97919.38
2023-04-25T04:15:04.534Z,97929.50
2023-04-25T04:17:31.354Z,97928.00
2023-04-25T04:19:57.947Z,97929.28
2023-04-25T04:22:25.037Z,97924.72
2023-04-25T04:24:51.908Z,97915.16
2023-04-25T04:27:23.737Z,97905.56
2023-04-25T04:29:52.509Z,97898.63
2023-04-25T04:32:19.179Z,97895.03
2023-04-25T04:34:45.822Z,97891.63
2023-04-25T04:37:14.425Z,97891.56
2023-04-25T04:39:41.030Z,97888.44
2023-04-25T04:42:08.000Z,97892.31
2023-04-25T04:44:35.410Z,97905.41
2023-04-25T04:47:03.015Z,97906.09
2023-04-25T04:49:29.668Z,97912.19
2023-04-25T04:51:58.411Z,97997.84
2023-04-25T04:54:26.574Z,98015.41
2023-04-25T04:56:53.540Z,98034.97
2023-04-25T04:59:20.057Z,98032.53
2023-04-25T05:01:47.809Z,98039.28
2023-04-25T05:04:14.414Z,98039.88
2023-04-25T05:06:41.488Z,98049.75
2023-04-25T05:09:08.035Z,98043.94
2023-04-25T05:11:34.556Z,98040.22
2023-04-25T05:14:01.102Z,98025.19
2023-04-25T05:16:29.091Z,98014.50
2023-04-25T05:18:55.726Z,98007.50
2023-04-25T05:21:22.481Z,97991.00
2023-04-25T05:23:49.051Z,97987.41
2023-04-25T05:26:15.832Z,97990.88
2023-04-25T05:28:43.208Z,97977.81
2023-04-25T05:31:12.780Z,97984.19
2023-04-25T05:33:39.355Z,97985.47
2023-04-25T05:36:06.391Z,97995.69
2023-04-25T05:38:34.812Z,97991.31
2023-04-25T05:41:01.750Z,97995.28
2023-04-25T05:43:28.316Z,97988.28
2023-04-25T05:45:54.983Z,97990.13
2023-04-25T05:48:21.511Z,97984.34
2023-04-25T05:50:48.130Z,97985.59
2023-04-25T05:53:14.602Z,97973.81
2023-04-25T05:55:41.046Z,97975.94
2023-04-25T05:58:08.132Z,97969.09
2023-04-25T06:00:34.813Z,97976.81
2023-04-25T06:03:02.173Z,97974.50
2023-04-25T06:05:28.980Z,97978.78
2023-04-25T06:07:55.600Z,97975.75
2023-04-25T06:10:23.551Z,97972.69
2023-04-25T06:12:50.442Z,97978.84
2023-04-25T06:15:27.991Z,97981.66
2023-04-25T06:17:55.528Z,97993.38
2023-04-25T06:20:25.613Z,98009.25
2023-04-25T06:22:55.403Z,98010.84
2023-04-25T06:25:22.178Z,98004.81
2023-04-25T06:27:48.805Z,98013.22
2023-04-25T06:30:16.230Z,98012.88
2023-04-25T06:32:42.897Z,98014.38
2023-04-25T06:35:09.876Z,98005.03
2023-04-25T06:37:36.404Z,98017.13
2023-04-25T06:40:03.505Z,98012.94
2023-04-25T06:42:30.025Z,98011.66
2023-04-25T06:44:56.861Z,98020.97
2023-04-25T06:47:23.405Z,98017.53
2023-04-25T06:49:50.392Z,98025.09
2023-04-25T06:52:18.927Z,98031.03
2023-04-25T06:54:46.165Z,98031.19
2023-04-25T06:57:12.935Z,98029.88
2023-04-25T06:59:39.613Z,98040.69
2023-04-25T07:02:07.095Z,98040.94
2023-04-25T07:04:33.908Z,98045.41
2023-04-25T07:07:01.949Z,98042.66
2023-04-25T07:09:28.430Z,98043.63
2023-04-25T07:11:54.960Z,98047.38
2023-04-25T07:14:21.466Z,98050.53
2023-04-25T07:16:48.392Z,98047.28
2023-04-25T07:19:15.077Z,98048.44
2023-04-25T07:21:41.533Z,98053.31
2023-04-25T07:24:08.061Z,98049.31
2023-04-25T07:26:34.532Z,98055.09
2023-04-25T07:29:00.996Z,98069.88
2023-04-25T07:31:27.874Z,98068.03
2023-04-25T07:33:54.385Z,98072.91
2023-04-25T07:36:21.971Z,98064.03
2023-04-25T07:38:48.624Z,98076.69
2023-04-25T07:41:15.293Z,98077.28
2023-04-25T07:43:41.818Z,98080.28
2023-04-25T07:46:08.345Z,98087.25
2023-04-25T07:48:34.863Z,98092.22
2023-04-25T07:51:01.314Z,98097.69
2023-04-25T07:53:27.749Z,98101.66
2023-04-25T07:55:54.281Z,98100.34
2023-04-25T07:58:22.907Z,98101.00
2023-04-25T08:00:50.030Z,98110.03
2023-04-25T08:03:16.741Z,98109.25
2023-04-25T08:05:43.952Z,98116.22
2023-04-25T08:08:10.651Z,98112.88
2023-04-25T08:10:37.237Z,98121.81
2023-04-25T08:13:04.008Z,98131.97
2023-04-25T08:15:30.784Z,98126.38
2023-04-25T08:17:57.466Z,98129.47
2023-04-25T08:20:24.085Z,98140.53
2023-04-25T08:22:50.690Z,98151.38
2023-04-25T08:25:17.160Z,98152.53
2023-04-25T08:27:44.381Z,98160.41
2023-04-25T08:30:11.231Z,98164.75
2023-04-25T08:32:39.830Z,98171.34
2023-04-25T08:35:07.187Z,98171.97
2023-04-25T08:37:33.721Z,98176.19
2023-04-25T08:40:00.223Z,98180.03
2023-04-25T08:42:28.392Z,98181.75
2023-04-25T08:44:56.229Z,98182.63
2023-04-25T08:47:23.810Z,98182.16
2023-04-25T08:49:51.834Z,98183.13
2023-04-25T08:52:23.245Z,98185.16
2023-04-25T08:54:50.549Z,98200.53
2023-04-25T08:57:18.266Z,98198.91
2023-04-25T08:59:46.933Z,98200.13
2023-04-25T09:02:16.850Z,98196.09
2023-04-25T09:04:45.156Z,98206.78
2023-04-25T09:07:11.740Z,98210.97
2023-04-25T09:09:38.288Z,98212.63
2023-04-25T09:12:06.197Z,98219.88
2023-04-25T09:14:32.966Z,98215.34
2023-04-25T09:17:01.910Z,98217.78
2023-04-25T09:19:41.090Z,98217.38
2023-04-25T09:22:09.047Z,98219.75
2023-04-25T09:24:47.153Z,98214.91
2023-04-25T09:27:19.248Z,98225.78
2023-04-25T09:29:45.770Z,98226.97
2023-04-25T09:32:19.012Z,98225.25
2023-04-25T09:34:49.370Z,98222.91
2023-04-25T09:37:30.572Z,98206.91
2023-04-25T09:40:04.124Z,98217.44
2023-04-25T09:42:32.842Z,98228.91
2023-04-25T09:45:00.058Z,98220.75
2023-04-25T09:47:27.817Z,98215.31
2023-04-25T09:49:56.023Z,98225.63
2023-04-25T09:52:25.782Z,98227.97
2023-04-25T09:54:53.394Z,98224.31
2023-04-25T09:57:24.860Z,98230.84
2023-04-25T09:59:56.026Z,98231.97
2023-04-25T10:02:26.148Z,98235.59
2023-04-25T10:04:56.218Z,98234.22
2023-04-25T10:07:27.208Z,98230.94
2023-04-25T10:10:02.766Z,98235.34
2023-04-25T10:12:29.613Z,98226.47
2023-04-25T10:14:56.314Z,98227.09
2023-04-25T10:17:23.584Z,98237.16
2023-04-25T10:19:50.165Z,98227.47
2023-04-25T10:22:31.570Z,98235.56
2023-04-25T10:24:58.595Z,98226.94
2023-04-25T10:27:25.188Z,98232.91
2023-04-25T10:30:05.481Z,98231.25
2023-04-25T10:32:35.948Z,98230.13
2023-04-25T10:35:20.145Z,98230.00
2023-04-25T10:38:06.394Z,98231.59
2023-04-25T10:40:34.451Z,98224.59
2023-04-25T10:43:31.859Z,98218.88
2023-04-25T10:46:00.417Z,98217.91
2023-04-25T10:48:35.829Z,98211.94
2023-04-25T10:51:13.110Z,98215.56
2023-04-25T10:53:39.554Z,98218.50
2023-04-25T10:56:19.760Z,98204.72
2023-04-25T10:58:47.706Z,98209.28
2023-04-25T11:01:20.955Z,98210.44
2023-04-25T11:03:51.498Z,98210.38
2023-04-25T11:06:33.443Z,98223.41
2023-04-25T11:09:02.506Z,98222.88
2023-04-25T11:11:30.400Z,98229.47
2023-04-25T11:13:56.890Z,98230.59
2023-04-25T11:16:28.444Z,98216.41
2023-04-25T11:18:58.396Z,98224.84
2023-04-25T11:21:27.446Z,98213.25
2023-04-25T11:23:55.669Z,98206.06
2023-04-25T11:26:23.295Z,98206.03
2023-04-25T11:28:50.461Z,98202.34
2023-04-25T11:31:16.979Z,98211.13
2023-04-25T11:33:43.664Z,98201.94
2023-04-25T11:36:11.088Z,98209.84
2023-04-25T11:38:37.558Z,98208.53
2023-04-25T11:41:04.124Z,98211.09
2023-04-25T11:43:30.789Z,98210.03
2023-04-25T11:45:57.585Z,98214.78
2023-04-25T11:48:25.892Z,98222.16
2023-04-25T11:50:52.719Z,98211.97
2023-04-25T11:53:19.619Z,98205.16
2023-04-25T11:55:46.339Z,98217.41
2023-04-25T11:58:14.801Z,98212.75
2023-04-25T12:00:50.411Z,98214.38
2023-04-25T12:03:19.429Z,98220.94
2023-04-25T12:05:47.426Z,98224.56
2023-04-25T12:08:15.662Z,98222.34
2023-04-25T12:10:44.262Z,98223.34
2023-04-25T12:13:25.683Z,98220.22
2023-04-25T12:15:52.947Z,98219.47
2023-04-25T12:18:25.232Z,98214.44
2023-04-25T12:20:53.588Z,98219.41
2023-04-25T12:23:27.632Z,98219.69
2023-04-25T12:25:54.201Z,98238.53
2023-04-25T12:28:24.743Z,98248.41
2023-04-25T12:31:01.773Z,98254.59
2023-04-25T12:33:30.621Z,98252.25
2023-04-25T12:35:58.606Z,98266.38
2023-04-25T12:38:30.012Z,98256.56
2023-04-25T12:40:56.975Z,98256.66
2023-04-25T12:43:24.257Z,98256.25
2023-04-25T12:45:54.913Z,98249.66
2023-04-25T12:48:22.276Z,98247.94
2023-04-25T12:50:50.402Z,98248.13
2023-04-25T12:53:21.470Z,98260.72
2023-04-25T12:55:48.535Z,98266.28
2023-04-25T12:58:16.190Z,98260.81
2023-04-25T13:00:44.170Z,98274.97
2023-04-25T13:03:14.723Z,98282.28
2023-04-25T13:05:42.104Z,98282.88
2023-04-25T13:08:09.017Z,98289.53
2023-04-25T13:10:37.044Z,98295.81
2023-04-25T13:13:03.710Z,98290.09
2023-04-25T13:15:30.363Z,98304.91
2023-04-25T13:17:57.204Z,98293.72
2023-04-25T13:20:23.945Z,98302.72
2023-04-25T13:22:50.880Z,98312.63
2023-04-25T13:25:17.750Z,98302.66
2023-04-25T13:27:45.726Z,98295.34
2023-04-25T13:30:12.500Z,98293.59
2023-04-25T13:32:39.491Z,98293.16
2023-04-25T13:35:10.458Z,98286.81
2023-04-25T13:37:37.771Z,98295.81
2023-04-25T13:40:10.857Z,98298.34
2023-04-25T13:42:41.219Z,98295.91
2023-04-25T13:45:08.621Z,98288.25
2023-04-25T13:47:35.542Z,98292.44
2023-04-25T13:50:04.105Z,98303.31
2023-04-25T13:52:30.717Z,98300.53
2023-04-25T13:54:57.208Z,98295.69
2023-04-25T13:57:23.677Z,98291.72
2023-04-25T13:59:50.179Z,98288.72
2023-04-25T14:02:16.769Z,98295.50
2023-04-25T14:04:43.705Z,98292.00
2023-04-25T14:07:11.882Z,98289.31
2023-04-25T14:09:38.356Z,98293.97
2023-04-25T14:12:04.999Z,98288.06
2023-04-25T14:14:31.484Z,98289.16
2023-04-25T14:16:58.333Z,98289.81
2023-04-25T14:19:25.631Z,98291.56
2023-04-25T14:21:52.229Z,98281.31
2023-04-25T14:24:18.739Z,98291.16
2023-04-25T14:26:45.610Z,98285.94
2023-04-25T14:29:15.256Z,98278.16
2023-04-25T14:31:42.315Z,98280.94
2023-04-25T14:34:09.134Z,98273.19
2023-04-25T14:36:36.817Z,98271.06
2023-04-25T14:39:04.032Z,98269.38
2023-04-25T14:41:30.476Z,98277.94
2023-04-25T14:43:58.087Z,98267.31
2023-04-25T14:46:24.825Z,98264.09
2023-04-25T14:48:52.169Z,98271.38
2023-04-25T14:51:18.679Z,98262.91
2023-04-25T14:53:45.561Z,98274.06
2023-04-25T14:56:12.156Z,98278.94
2023-04-25T14:58:39.874Z,98275.53
2023-04-25T15:01:07.773Z,98275.84
2023-04-25T15:03:34.500Z,98279.34
2023-04-25T15:06:01.226Z,98286.66
2023-04-25T15:08:27.670Z,98297.72
2023-04-25T15:10:54.383Z,98296.59
2023-04-25T15:13:21.289Z,98301.16
2023-04-25T15:15:52.091Z,98312.63
2023-04-25T15:18:23.695Z,98312.00
2023-04-25T15:20:51.846Z,98319.97
2023-04-25T15:23:19.509Z,98322.56
2023-04-25T15:25:46.762Z,98323.00
2023-04-25T15:28:15.937Z,98322.25
2023-04-25T15:30:43.221Z,98321.50
2023-04-25T15:33:09.677Z,98323.41
2023-04-25T15:35:36.352Z,98328.31
2023-04-25T15:38:02.866Z,98332.09
2023-04-25T15:40:29.343Z,98338.25
2023-04-25T15:42:55.892Z,98329.28
2023-04-25T15:45:26.041Z,98323.41
2023-04-25T15:47:55.831Z,98326.75
2023-04-25T15:50:22.890Z,98331.56
2023-04-25T15:52:50.911Z,98330.03
2023-04-25T15:55:19.043Z,98330.88
2023-04-25T15:57:45.514Z,98331.69
2023-04-25T16:00:13.287Z,98332.06
2023-04-25T16:02:41.364Z,98339.03
2023-04-25T16:05:09.287Z,98334.53
2023-04-25T16:07:36.271Z,98337.72
2023-04-25T16:10:03.086Z,98334.34
2023-04-25T16:12:31.092Z,98330.53
2023-04-25T16:14:58.230Z,98334.47
2023-04-25T16:17:25.562Z,98329.31
2023-04-25T16:19:52.217Z,98331.47
2023-04-25T16:22:18.731Z,98333.63
2023-04-25T16:24:45.364Z,98325.00
2023-04-25T16:27:12.313Z,98329.88
2023-04-25T16:29:39.412Z,98324.19
2023-04-25T16:32:06.138Z,98326.91
2023-04-25T16:34:32.902Z,98316.78
2023-04-25T16:36:59.909Z,98323.00
2023-04-25T16:39:26.427Z,98325.72
2023-04-25T16:41:53.374Z,98330.69
2023-04-25T16:44:19.899Z,98325.81
2023-04-25T16:46:46.415Z,98325.09
2023-04-25T16:49:12.991Z,98326.44
2023-04-25T16:51:39.561Z,98318.53
2023-04-25T16:54:06.441Z,98320.44
2023-04-25T16:56:32.880Z,98328.72
2023-04-25T16:58:59.384Z,98327.91
2023-04-25T17:01:25.913Z,98321.72
2023-04-25T17:03:52.600Z,98323.06
2023-04-25T17:06:19.261Z,98327.56
2023-04-25T17:08:45.860Z,98329.50
2023-04-25T17:11:12.522Z,98328.50
2023-04-25T17:13:39.084Z,98327.47
2023-04-25T17:16:06.356Z,98330.38
2023-04-25T17:18:32.903Z,98332.88
2023-04-25T17:20:59.528Z,98339.16
2023-04-25T17:23:26.271Z,98344.25
2023-04-25T17:25:54.291Z,98342.66
2023-04-25T17:28:20.846Z,98347.81
2023-04-25T17:30:47.475Z,98346.91
2023-04-25T17:33:14.050Z,98355.97
2023-04-25T17:35:40.699Z,98359.16
2023-04-25T17:38:07.237Z,98357.69
2023-04-25T17:40:33.685Z,98365.13
2023-04-25T17:43:00.189Z,98366.47
2023-04-25T17:45:26.841Z,98368.25
2023-04-25T17:47:53.517Z,98381.94
2023-04-25T17:50:20.697Z,98375.03
2023-04-25T17:52:48.354Z,98380.56
2023-04-25T17:55:15.194Z,98379.13
2023-04-25T17:57:41.698Z,98375.03
2023-04-25T18:00:09.345Z,98388.31
2023-04-25T18:02:36.699Z,98386.22
2023-04-25T18:05:09.894Z,98390.03
2023-04-25T18:07:37.106Z,98394.19
2023-04-25T18:10:06.848Z,98399.00
2023-04-25T18:12:34.119Z,98399.31
2023-04-25T18:15:01.818Z,98406.00
2023-04-25T18:17:28.448Z,98411.69
2023-04-25T18:19:55.439Z,98424.19
2023-04-25T18:22:22.298Z,98445.44
2023-04-25T18:24:50.012Z,98451.84
2023-04-25T18:27:16.654Z,98454.06
2023-04-25T18:29:45.329Z,98462.03
2023-04-25T18:32:12.266Z,98465.75
2023-04-25T18:34:41.497Z,98465.44
2023-04-25T18:37:08.050Z,98471.59
2023-04-25T18:39:34.567Z,98474.94
2023-04-25T18:42:06.694Z,98476.81
2023-04-25T18:44:36.556Z,98458.00
2023-04-25T18:47:03.105Z,98462.00
2023-04-25T18:49:29.605Z,98469.56
2023-04-25T18:51:57.472Z,98472.50
2023-04-25T18:54:23.979Z,98485.19
2023-04-25T18:56:50.509Z,98477.91
2023-04-25T18:59:18.050Z,98482.41
2023-04-25T19:01:44.899Z,98482.41
2023-04-25T19:04:11.579Z,98491.09
2023-04-25T19:06:38.237Z,98490.13
2023-04-25T19:09:04.756Z,98493.28
2023-04-25T19:11:31.286Z,98490.19
2023-04-25T19:13:57.837Z,98488.63
2023-04-25T19:16:26.400Z,98486.53
2023-04-25T19:18:55.295Z,98495.56
2023-04-25T19:21:22.644Z,98496.69
2023-04-25T19:23:49.230Z,98489.72
2023-04-25T19:26:15.702Z,98506.97
2023-04-25T19:28:44.755Z,98506.19
2023-04-25T19:31:12.991Z,98506.09
2023-04-25T19:33:39.592Z,98506.00
2023-04-25T19:36:06.139Z,98508.00
2023-04-25T19:38:32.674Z,98507.56
2023-04-25T19:40:59.241Z,98508.03
2023-04-25T19:43:26.137Z,98510.47
2023-04-25T19:45:53.964Z,98511.63
2023-04-25T19:48:21.128Z,98509.50
2023-04-25T19:50:47.639Z,98511.38
2023-04-25T19:53:14.168Z,98507.34
2023-04-25T19:55:41.234Z,98516.19
2023-04-25T19:58:08.082Z,98509.09
2023-04-25T20:00:34.596Z,98519.13
2023-04-25T20:03:02.152Z,98515.31
2023-04-25T20:05:28.917Z,98517.69
2023-04-25T20:07:55.422Z,98518.13
2023-04-25T20:10:22.285Z,98519.19
2023-04-25T20:12:49.417Z,98523.16
2023-04-25T20:15:17.878Z,98526.09
2023-04-25T20:17:44.436Z,98532.97
2023-04-25T20:20:11.817Z,98536.81
2023-04-25T20:22:40.420Z,98534.59
2023-04-25T20:25:09.167Z,98537.59
2023-04-25T20:27:38.019Z,98542.50
2023-04-25T20:30:08.637Z,98550.31
2023-04-25T20:32:36.022Z,98543.69
2023-04-25T20:35:03.953Z,98543.09
2023-04-25T20:37:33.623Z,98551.13
2023-04-25T20:40:00.989Z,98547.06
2023-04-25T20:42:27.608Z,98548.81
2023-04-25T20:44:54.691Z,98539.63
2023-04-25T20:47:21.896Z,98542.44
2023-04-25T20:49:48.529Z,98531.91
2023-04-25T20:52:16.087Z,98533.19
2023-04-25T20:54:42.836Z,98524.19
2023-04-25T20:57:09.483Z,98516.28
2023-04-25T20:59:36.326Z,98528.75
2023-04-25T21:02:02.927Z,98533.34
2023-04-25T21:04:29.493Z,98529.38
2023-04-25T21:06:55.990Z,98537.13
2023-04-25T21:09:22.429Z,98523.88
2023-04-25T21:11:48.914Z,98534.88
2023-04-25T21:14:16.489Z,98535.44
2023-04-25T21:16:43.046Z,98532.75
2023-04-25T21:19:09.639Z,98537.41
2023-04-25T21:21:36.181Z,98537.53
2023-04-25T21:24:02.932Z,98539.16
2023-04-25T21:26:29.431Z,98537.88
2023-04-25T21:28:55.919Z,98541.38
2023-04-25T21:31:22.547Z,98536.13
2023-04-25T21:33:49.074Z,98544.19
2023-04-25T21:36:15.904Z,98540.06
2023-04-25T21:38:42.424Z,98539.50
2023-04-25T21:41:08.983Z,98545.56
2023-04-25T21:43:36.719Z,98547.44
2023-04-25T21:48:32.612Z,98551.69
2023-04-25T21:50:59.245Z,98551.81
2023-04-25T21:53:26.792Z,98557.88
2023-04-25T21:55:53.412Z,98552.00
2023-04-25T21:58:19.870Z,98558.47
2023-04-25T22:00:46.358Z,98552.41
2023-04-25T22:03:16.097Z,98556.44
2023-04-25T22:05:42.834Z,98557.59
2023-04-25T22:08:09.661Z,98551.88
2023-04-25T22:10:36.220Z,98549.84
2023-04-25T22:13:02.739Z,98553.50
2023-04-25T22:15:29.569Z,98547.63
2023-04-25T22:17:56.116Z,98552.06
2023-04-25T22:20:26.182Z,98558.28
2023-04-25T22:22:54.505Z,98555.81
2023-04-25T22:25:21.298Z,98561.00
2023-04-25T22:27:48.240Z,98558.06
2023-04-25T22:30:15.020Z,98557.72
2023-04-25T22:32:42.012Z,98554.69
2023-04-25T22:35:09.295Z,98558.06
2023-04-25T22:37:36.178Z,98551.13
2023-04-25T22:40:07.132Z,98556.03
2023-04-25T22:42:40.278Z,98561.06
2023-04-25T22:45:08.278Z,98551.91
2023-04-25T22:47:38.733Z,98548.06
2023-04-25T22:50:13.308Z,98554.63
2023-04-25T22:52:40.563Z,98552.84
2023-04-25T22:55:07.389Z,98559.25
2023-04-25T22:57:36.901Z,98558.88
2023-04-25T23:00:09.397Z,98559.91
2023-04-25T23:02:36.096Z,98565.47
2023-04-25T23:05:02.650Z,98561.06
2023-04-25T23:07:29.190Z,98564.00
2023-04-25T23:09:55.723Z,98558.09
2023-04-25T23:12:22.770Z,98566.66
2023-04-25T23:14:51.151Z,98565.81
2023-04-25T23:17:17.661Z,98569.09
2023-04-25T23:19:45.206Z,98571.13
2023-04-25T23:22:11.772Z,98564.72
2023-04-25T23:24:41.620Z,98577.13
2023-04-25T23:27:08.171Z,98574.50
2023-04-25T23:29:34.817Z,98571.56
2023-04-25T23:32:04.489Z,98572.06
2023-04-25T23:34:32.053Z,98577.19
2023-04-25T23:37:01.246Z,98577.72
2023-04-25T23:39:28.240Z,98575.13
2023-04-25T23:41:55.034Z,98584.81
2023-04-25T23:44:22.189Z,98586.28
2023-04-25T23:46:49.611Z,98589.19
2023-04-25T23:49:16.117Z,98581.38
2023-04-25T23:51:43.077Z,98586.59
2023-04-25T23:54:09.617Z,98589.72
2023-04-25T23:56:36.202Z,98587.69
2023-04-25T23:59:03.812Z,98600.63
